createdAt,value
2018-05-29T00:00:40.630Z,32.40
2018-05-29T00:03:08.128Z,32.40
2018-05-29T00:05:36.393Z,32.50
2018-05-29T00:08:03.856Z,33.20
2018-05-29T00:10:31.357Z,32.60
2018-05-29T00:12:59.605Z,32.70
2018-05-29T00:15:27.134Z,32.70
2018-05-29T00:17:54.614Z,32.80
2018-05-29T00:20:22.100Z,32.80
2018-05-29T00:22:49.636Z,32.90
2018-05-29T00:25:17.140Z,32.90
2018-05-29T00:27:44.648Z,32.90
2018-05-29T00:30:12.164Z,33.00
2018-05-29T00:32:39.631Z,33.10
2018-05-29T00:35:07.109Z,33.10
2018-05-29T00:37:34.588Z,33.20
2018-05-29T00:40:02.229Z,33.30
2018-05-29T00:42:30.644Z,33.40
2018-05-29T00:44:58.957Z,33.50
2018-05-29T00:47:26.476Z,33.50
2018-05-29T00:49:54.782Z,33.90
2018-05-29T00:52:22.275Z,33.60
2018-05-29T00:55:01.627Z,33.60
2018-05-29T00:57:29.135Z,33.70
2018-05-29T00:59:56.648Z,33.70
2018-05-29T01:02:24.179Z,33.70
2018-05-29T01:04:51.659Z,33.80
2018-05-29T01:07:19.155Z,33.90
2018-05-29T01:09:46.669Z,33.90
2018-05-29T01:12:14.155Z,34.00
2018-05-29T01:14:41.632Z,34.00
2018-05-29T01:17:09.111Z,34.10
2018-05-29T01:19:36.592Z,34.10
2018-05-29T01:22:04.117Z,34.20
2018-05-29T01:24:31.590Z,34.20
2018-05-29T01:26:59.099Z,34.30
2018-05-29T01:29:26.564Z,34.30
2018-05-29T01:31:54.055Z,34.40
2018-05-29T01:34:21.515Z,34.50
2018-05-29T01:36:49.008Z,34.50
2018-05-29T01:39:17.233Z,34.70
2018-05-29T01:41:44.703Z,34.80
2018-05-29T01:44:12.176Z,34.60
2018-05-29T01:46:39.664Z,34.70
2018-05-29T01:49:07.149Z,34.70
2018-05-29T01:51:34.656Z,34.70
2018-05-29T01:54:02.900Z,34.90
2018-05-29T01:56:30.411Z,35.00
2018-05-29T01:58:58.648Z,35.10
2018-05-29T02:01:26.139Z,35.10
2018-05-29T02:03:53.607Z,35.00
2018-05-29T02:06:21.097Z,35.10
2018-05-29T02:08:48.579Z,35.20
2018-05-29T02:11:16.854Z,35.40
2018-05-29T02:13:44.373Z,35.30
2018-05-29T02:16:11.836Z,35.30
2018-05-29T02:18:39.331Z,35.50
2018-05-29T02:21:06.819Z,35.50
2018-05-29T02:23:34.321Z,35.60
2018-05-29T02:26:02.564Z,36.00
2018-05-29T02:28:30.100Z,35.70
2018-05-29T02:30:58.346Z,35.80
2018-05-29T02:33:25.854Z,35.80
2018-05-29T02:35:53.420Z,35.80
2018-05-29T02:38:21.740Z,36.00
2018-05-29T02:40:49.209Z,36.10
2018-05-29T02:43:16.743Z,36.10
2018-05-29T02:45:44.212Z,36.10
2018-05-29T02:48:11.716Z,36.20
2018-05-29T02:50:39.176Z,36.20
2018-05-29T02:53:07.558Z,36.30
2018-05-29T02:55:35.820Z,36.50
2018-05-29T02:58:04.117Z,36.60
2018-05-29T03:00:31.592Z,36.50
2018-05-29T03:02:59.108Z,36.60
2018-05-29T03:05:26.605Z,36.40
2018-05-29T03:07:54.118Z,36.80
2018-05-29T03:10:21.817Z,36.80
2018-05-29T03:12:49.293Z,36.90
2018-05-29T03:15:16.796Z,37.00
2018-05-29T03:17:44.285Z,37.00
2018-05-29T03:20:11.755Z,37.10
2018-05-29T03:22:39.265Z,37.20
2018-05-29T03:25:07.527Z,37.30
2018-05-29T03:27:35.024Z,37.30
2018-05-29T03:30:03.287Z,37.50
2018-05-29T03:32:30.782Z,37.60
2018-05-29T03:34:59.044Z,37.70
2018-05-29T03:37:26.545Z,37.70
2018-05-29T03:39:54.769Z,37.70
2018-05-29T03:42:22.255Z,37.90
2018-05-29T03:44:50.506Z,38.10
2018-05-29T03:47:17.990Z,38.20
2018-05-29T03:49:45.467Z,38.40
2018-05-29T03:52:12.960Z,38.70
2018-05-29T03:54:40.443Z,38.80
2018-05-29T03:57:08.191Z,38.70
2018-05-29T03:59:35.694Z,38.70
2018-05-29T04:02:03.204Z,38.70
2018-05-29T04:04:31.522Z,38.60
2018-05-29T04:06:59.917Z,38.70
2018-05-29T04:09:28.327Z,38.60
2018-05-29T04:11:55.924Z,38.70
2018-05-29T04:14:23.408Z,38.70
2018-05-29T04:16:51.640Z,38.80
2018-05-29T04:19:19.129Z,38.80
2018-05-29T04:21:46.584Z,38.80
2018-05-29T04:24:14.095Z,38.80
2018-05-29T04:26:41.551Z,38.80
2018-05-29T04:29:09.120Z,38.90
2018-05-29T04:31:37.404Z,38.90
2018-05-29T04:34:05.045Z,39.00
2018-05-29T04:36:32.516Z,39.00
2018-05-29T04:39:00.003Z,39.10
2018-05-29T04:41:27.513Z,39.20
2018-05-29T04:43:55.086Z,39.20
2018-05-29T04:46:22.551Z,39.30
2018-05-29T04:48:50.029Z,39.30
2018-05-29T04:51:17.499Z,39.30
2018-05-29T04:53:46.493Z,39.40
2018-05-29T04:56:13.956Z,39.50
2018-05-29T04:58:41.460Z,39.30
2018-05-29T05:01:08.949Z,39.40
2018-05-29T05:03:36.444Z,39.40
2018-05-29T05:06:04.028Z,39.40
2018-05-29T05:08:31.511Z,39.50
2018-05-29T05:10:59.000Z,39.40
2018-05-29T05:13:26.523Z,39.50
2018-05-29T05:15:54.079Z,39.50
2018-05-29T05:18:22.349Z,39.50
2018-05-29T05:20:49.820Z,39.60
2018-05-29T05:23:17.312Z,39.70
2018-05-29T05:25:45.536Z,39.60
2018-05-29T05:28:13.023Z,39.60
2018-05-29T05:30:40.496Z,39.60
2018-05-29T05:33:08.743Z,39.60
2018-05-29T05:35:36.232Z,39.70
2018-05-29T05:38:03.702Z,39.60
2018-05-29T05:40:31.249Z,39.60
2018-05-29T05:42:59.731Z,39.60
2018-05-29T05:45:27.997Z,39.70
2018-05-29T05:47:55.544Z,39.60
2018-05-29T05:50:23.036Z,39.60
2018-05-29T05:52:50.531Z,39.70
2018-05-29T05:55:18.008Z,39.80
2018-05-29T05:57:46.243Z,40.00
2018-05-29T06:00:13.779Z,40.10
2018-05-29T06:02:42.069Z,40.20
2018-05-29T06:05:10.453Z,40.20
2018-05-29T06:07:37.949Z,40.20
2018-05-29T06:10:05.437Z,40.10
2018-05-29T06:12:32.960Z,40.10
2018-05-29T06:15:01.254Z,40.10
2018-05-29T06:17:29.523Z,40.10
2018-05-29T06:19:57.025Z,40.10
2018-05-29T06:22:24.502Z,40.10
2018-05-29T06:24:51.992Z,40.10
2018-05-29T06:27:19.469Z,40.10
2018-05-29T06:29:46.996Z,40.10
2018-05-29T06:32:14.480Z,40.20
2018-05-29T06:34:41.978Z,40.10
2018-05-29T06:37:09.439Z,40.00
2018-05-29T06:39:36.958Z,40.00
2018-05-29T06:42:04.443Z,39.90
2018-05-29T06:44:31.934Z,39.70
2018-05-29T06:47:00.169Z,39.50
2018-05-29T06:49:27.727Z,39.50
2018-05-29T06:51:55.216Z,39.40
2018-05-29T06:54:22.744Z,39.30
2018-05-29T06:56:50.982Z,39.30
2018-05-29T06:59:18.471Z,39.40
2018-05-29T07:01:45.962Z,39.50
2018-05-29T07:04:13.448Z,39.50
2018-05-29T07:06:40.932Z,39.70
2018-05-29T07:09:09.244Z,40.40
2018-05-29T07:11:37.560Z,39.60
2018-05-29T07:14:05.048Z,39.70
2018-05-29T07:16:32.561Z,39.60
2018-05-29T07:19:00.822Z,39.60
2018-05-29T07:21:28.313Z,39.60
2018-05-29T07:23:55.833Z,39.50
2018-05-29T07:26:23.362Z,39.60
2018-05-29T07:28:51.676Z,40.20
2018-05-29T07:31:19.156Z,39.60
2018-05-29T07:33:46.667Z,39.70
2018-05-29T07:36:14.172Z,40.50
2018-05-29T07:38:42.418Z,40.80
2018-05-29T07:41:09.905Z,40.70
2018-05-29T07:43:37.485Z,41.20
2018-05-29T07:46:05.822Z,42.10
2018-05-29T07:48:33.346Z,42.10
2018-05-29T07:51:00.837Z,42.20
2018-05-29T07:53:28.489Z,42.40
2018-05-29T07:55:55.993Z,42.30
2018-05-29T07:58:24.258Z,41.80
2018-05-29T08:00:52.531Z,41.40
2018-05-29T08:03:20.000Z,41.30
2018-05-29T08:05:47.496Z,41.20
2018-05-29T08:08:15.000Z,40.70
2018-05-29T08:10:42.494Z,40.20
2018-05-29T08:13:09.984Z,39.80
2018-05-29T08:15:37.471Z,39.30
2018-05-29T08:18:05.007Z,38.60
2018-05-29T08:20:32.498Z,38.40
2018-05-29T08:22:59.987Z,38.00
2018-05-29T08:25:27.667Z,37.90
2018-05-29T08:27:55.164Z,37.60
2018-05-29T08:30:23.441Z,36.80
2018-05-29T08:32:51.729Z,36.40
2018-05-29T08:35:19.222Z,36.20
2018-05-29T08:37:46.688Z,35.80
2018-05-29T08:40:14.323Z,35.20
2018-05-29T08:42:41.872Z,34.90
2018-05-29T08:45:09.403Z,34.50
2018-05-29T08:47:37.641Z,33.30
2018-05-29T08:50:05.235Z,33.20
2018-05-29T08:52:32.705Z,32.50
2018-05-29T08:55:00.205Z,32.10
2018-05-29T08:57:28.514Z,31.70
2018-05-29T08:59:56.134Z,31.50
2018-05-29T09:02:23.697Z,31.30
2018-05-29T09:04:51.932Z,31.40
2018-05-29T09:07:20.198Z,31.50
2018-05-29T09:09:47.669Z,31.40
2018-05-29T09:12:15.170Z,31.70
2018-05-29T09:14:42.724Z,32.00
2018-05-29T09:17:10.204Z,31.90
2018-05-29T09:19:38.442Z,30.90
2018-05-29T09:22:05.927Z,30.80
2018-05-29T09:24:33.411Z,30.10
2018-05-29T09:27:00.900Z,29.80
2018-05-29T09:29:28.383Z,29.20
2018-05-29T09:31:56.663Z,28.50
2018-05-29T09:34:24.919Z,28.70
2018-05-29T09:36:52.456Z,28.10
2018-05-29T09:39:19.980Z,27.90
2018-05-29T09:41:47.492Z,27.50
2018-05-29T09:44:14.973Z,27.10
2018-05-29T09:46:42.460Z,26.70
2018-05-29T09:49:09.934Z,26.50
2018-05-29T09:51:37.448Z,26.40
2018-05-29T09:54:04.993Z,26.40
2018-05-29T09:56:32.533Z,26.30
2018-05-29T09:59:00.042Z,25.80
2018-05-29T10:01:27.568Z,25.20
2018-05-29T10:03:55.123Z,24.80
2018-05-29T10:06:23.414Z,24.80
2018-05-29T10:08:51.660Z,24.60
2018-05-29T10:11:19.238Z,24.50
2018-05-29T10:13:46.739Z,24.40
2018-05-29T10:16:14.996Z,24.20
2018-05-29T10:18:42.497Z,24.20
2018-05-29T10:21:10.768Z,23.60
2018-05-29T10:23:38.241Z,23.40
2018-05-29T10:26:05.760Z,23.20
2018-05-29T10:28:33.344Z,22.90
2018-05-29T10:31:00.908Z,22.30
2018-05-29T10:33:28.694Z,21.90
2018-05-29T10:35:56.470Z,22.00
2018-05-29T10:38:24.209Z,22.10
2018-05-29T10:40:52.561Z,21.80
2018-05-29T10:43:20.220Z,21.70
2018-05-29T10:45:48.642Z,21.00
2018-05-29T10:48:16.144Z,21.00
2018-05-29T10:50:44.428Z,20.70
2018-05-29T10:53:12.684Z,20.60
2018-05-29T10:55:40.163Z,20.50
2018-05-29T10:58:07.820Z,20.70
2018-05-29T11:00:35.337Z,20.80
2018-05-29T11:03:03.765Z,20.70
2018-05-29T11:05:31.283Z,20.70
2018-05-29T11:07:58.776Z,20.70
2018-05-29T11:10:27.080Z,20.70
2018-05-29T11:12:54.613Z,20.70
2018-05-29T11:15:22.113Z,20.70
2018-05-29T11:17:50.375Z,21.60
2018-05-29T11:20:17.843Z,21.50
2018-05-29T11:22:45.351Z,22.20
2018-05-29T11:25:13.850Z,23.70
2018-05-29T11:27:41.356Z,23.40
2018-05-29T11:30:08.827Z,23.70
2018-05-29T11:32:36.308Z,24.10
2018-05-29T11:35:03.783Z,24.00
2018-05-29T11:37:31.291Z,24.00
2018-05-29T11:39:59.541Z,23.30
2018-05-29T11:42:27.111Z,23.30
2018-05-29T11:44:54.621Z,23.10
2018-05-29T11:47:22.927Z,22.40
2018-05-29T11:49:50.435Z,22.40
2018-05-29T11:52:17.917Z,22.00
2018-05-29T11:54:45.403Z,21.90
2018-05-29T11:57:12.888Z,21.90
2018-05-29T11:59:40.410Z,21.90
2018-05-29T12:02:08.185Z,22.50
2018-05-29T12:04:35.707Z,22.20
2018-05-29T12:07:03.185Z,22.30
2018-05-29T12:09:31.501Z,21.60
2018-05-29T12:12:10.669Z,21.60
2018-05-29T12:14:38.190Z,21.30
2018-05-29T12:17:05.671Z,21.10
2018-05-29T12:19:33.179Z,21.20
2018-05-29T12:22:00.660Z,21.40
2018-05-29T12:24:28.236Z,21.60
2018-05-29T12:26:55.763Z,21.60
2018-05-29T12:29:23.256Z,21.90
2018-05-29T12:31:50.786Z,22.20
2018-05-29T12:34:18.297Z,22.60
2018-05-29T12:36:45.817Z,23.30
2018-05-29T12:39:13.327Z,22.90
2018-05-29T12:41:41.570Z,21.90
2018-05-29T12:44:09.065Z,21.80
2018-05-29T12:46:36.573Z,21.20
2018-05-29T12:49:04.082Z,21.10
2018-05-29T12:51:31.588Z,21.10
2018-05-29T12:53:59.084Z,20.90
2018-05-29T12:56:26.579Z,21.20
2018-05-29T12:58:54.106Z,21.00
2018-05-29T13:01:21.653Z,21.10
2018-05-29T13:03:49.201Z,21.30
2018-05-29T13:06:17.457Z,21.20
2018-05-29T13:08:44.999Z,21.10
2018-05-29T13:11:12.540Z,20.40
2018-05-29T13:13:40.784Z,20.00
2018-05-29T13:16:08.269Z,20.00
2018-05-29T13:18:35.742Z,20.30
2018-05-29T13:21:03.219Z,20.20
2018-05-29T13:23:30.689Z,20.30
2018-05-29T13:25:58.176Z,20.20
2018-05-29T13:28:26.462Z,19.80
2018-05-29T13:30:53.971Z,19.80
2018-05-29T13:33:21.451Z,20.60
2018-05-29T13:35:48.949Z,20.30
2018-05-29T13:38:16.445Z,20.40
2018-05-29T13:40:44.728Z,20.80
2018-05-29T13:43:12.188Z,20.20
2018-05-29T13:45:39.680Z,20.50
2018-05-29T13:48:07.951Z,20.70
2018-05-29T13:50:35.651Z,20.60
2018-05-29T13:53:03.184Z,20.20
2018-05-29T13:55:30.718Z,20.10
2018-05-29T13:57:58.952Z,20.30
2018-05-29T14:00:26.515Z,20.20
2018-05-29T14:02:54.028Z,20.10
2018-05-29T14:05:22.289Z,19.60
2018-05-29T14:07:49.857Z,19.40
2018-05-29T14:10:17.356Z,18.80
2018-05-29T14:12:44.984Z,18.90
2018-05-29T14:15:12.523Z,19.10
2018-05-29T14:17:40.022Z,19.00
2018-05-29T14:20:07.521Z,18.90
2018-05-29T14:22:35.023Z,18.80
2018-05-29T14:25:02.524Z,18.80
2018-05-29T14:27:30.025Z,18.70
2018-05-29T14:29:57.516Z,18.80
2018-05-29T14:32:25.146Z,18.80
2018-05-29T14:34:52.612Z,19.00
2018-05-29T14:37:20.171Z,19.10
2018-05-29T14:39:48.429Z,19.20
2018-05-29T14:42:15.944Z,19.20
2018-05-29T14:44:43.452Z,19.40
2018-05-29T14:47:10.968Z,19.60
2018-05-29T14:49:39.204Z,19.70
2018-05-29T14:52:06.729Z,19.70
2018-05-29T14:54:34.979Z,19.70
2018-05-29T14:57:02.488Z,19.70
2018-05-29T14:59:30.731Z,20.00
2018-05-29T15:01:59.045Z,20.20
2018-05-29T15:04:26.554Z,20.20
2018-05-29T15:06:54.040Z,20.40
2018-05-29T15:09:21.515Z,20.60
2018-05-29T15:11:49.017Z,20.80
2018-05-29T15:14:16.548Z,21.10
2018-05-29T15:16:44.060Z,21.20
2018-05-29T15:19:11.578Z,21.30
2018-05-29T15:21:39.067Z,21.50
2018-05-29T15:24:06.532Z,21.60
2018-05-29T15:26:34.001Z,21.70
2018-05-29T15:29:01.540Z,21.90
2018-05-29T15:31:29.026Z,22.10
2018-05-29T15:33:57.285Z,22.60
2018-05-29T15:36:24.756Z,22.60
2018-05-29T15:38:52.231Z,22.80
2018-05-29T15:41:19.747Z,23.00
2018-05-29T15:43:47.214Z,23.20
2018-05-29T15:46:14.799Z,23.40
2018-05-29T15:48:42.289Z,23.60
2018-05-29T15:51:10.533Z,23.90
2018-05-29T15:53:38.783Z,24.10
2018-05-29T15:56:06.244Z,24.10
2018-05-29T15:58:33.732Z,24.20
2018-05-29T16:01:01.217Z,24.20
2018-05-29T16:03:29.508Z,24.30
2018-05-29T16:05:56.978Z,24.70
2018-05-29T16:08:24.508Z,24.80
2018-05-29T16:10:52.036Z,25.30
2018-05-29T16:13:19.540Z,24.80
2018-05-29T16:15:47.041Z,24.80
2018-05-29T16:18:14.600Z,24.90
2018-05-29T16:20:42.078Z,24.90
2018-05-29T16:23:09.595Z,25.00
2018-05-29T16:25:37.832Z,25.10
2018-05-29T16:28:05.325Z,25.10
2018-05-29T16:30:32.809Z,25.10
2018-05-29T16:33:00.344Z,25.20
2018-05-29T16:35:28.074Z,25.20
2018-05-29T16:37:55.581Z,25.20
2018-05-29T16:40:23.083Z,25.50
2018-05-29T16:42:51.338Z,25.80
2018-05-29T16:45:18.836Z,25.80
2018-05-29T16:47:46.328Z,25.90
2018-05-29T16:50:13.835Z,25.90
2018-05-29T16:52:41.327Z,26.10
2018-05-29T16:55:08.817Z,26.10
2018-05-29T16:57:36.288Z,26.40
2018-05-29T17:00:03.774Z,26.40
2018-05-29T17:02:31.265Z,26.40
2018-05-29T17:04:58.759Z,26.60
2018-05-29T17:07:26.256Z,26.80
2018-05-29T17:09:53.741Z,26.90
2018-05-29T17:12:21.641Z,27.00
2018-05-29T17:14:49.147Z,27.20
2018-05-29T17:17:16.821Z,27.30
2018-05-29T17:19:44.352Z,27.50
2018-05-29T17:22:11.863Z,27.50
2018-05-29T17:24:40.108Z,27.70
2018-05-29T17:27:07.618Z,27.70
2018-05-29T17:29:35.844Z,27.70
2018-05-29T17:32:03.378Z,27.80
2018-05-29T17:34:30.836Z,27.80
2018-05-29T17:36:58.327Z,27.80
2018-05-29T17:39:26.563Z,28.00
2018-05-29T17:41:54.045Z,28.00
2018-05-29T17:44:21.553Z,28.10
2018-05-29T17:46:49.824Z,28.30
2018-05-29T17:49:20.751Z,28.30
2018-05-29T17:51:48.345Z,28.40
2018-05-29T17:54:15.883Z,28.40
2018-05-29T17:56:43.372Z,28.60
2018-05-29T17:59:10.845Z,28.60
2018-05-29T18:01:38.333Z,28.80
2018-05-29T18:04:05.850Z,28.80
2018-05-29T18:06:33.387Z,28.90
2018-05-29T18:09:00.860Z,29.00
2018-05-29T18:11:29.111Z,29.30
2018-05-29T18:13:57.405Z,29.40
2018-05-29T18:16:24.867Z,29.40
2018-05-29T18:18:52.333Z,29.50
2018-05-29T18:21:19.811Z,29.60
2018-05-29T18:23:47.345Z,29.70
2018-05-29T18:26:14.844Z,29.80
2018-05-29T18:28:42.319Z,29.80
2018-05-29T18:31:09.844Z,29.80
2018-05-29T18:33:37.309Z,29.90
2018-05-29T18:36:04.817Z,29.90
2018-05-29T18:38:32.573Z,30.00
2018-05-29T18:41:00.059Z,30.00
2018-05-29T18:43:27.550Z,30.20
2018-05-29T18:45:55.027Z,30.00
2018-05-29T18:48:22.528Z,30.00
2018-05-29T18:50:49.999Z,30.00
2018-05-29T18:53:17.542Z,30.10
2018-05-29T18:55:45.063Z,30.10
2018-05-29T18:58:13.344Z,30.30
2018-05-29T19:00:40.860Z,30.40
2018-05-29T19:03:08.358Z,30.40
2018-05-29T19:05:35.865Z,30.50
2018-05-29T19:08:04.244Z,30.70
2018-05-29T19:10:32.523Z,30.80
2018-05-29T19:13:00.031Z,30.80
2018-05-29T19:15:28.270Z,31.00
2018-05-29T19:17:55.771Z,31.10
2018-05-29T19:20:23.238Z,31.10
2018-05-29T19:22:50.762Z,31.10
2018-05-29T19:25:18.236Z,31.30
2018-05-29T19:27:45.729Z,31.40
2018-05-29T19:30:13.191Z,31.50
2018-05-29T19:32:40.675Z,31.60
2018-05-29T19:35:08.148Z,31.80
2018-05-29T19:37:35.636Z,31.90
2018-05-29T19:40:03.197Z,32.00
2018-05-29T19:42:30.788Z,32.10
2018-05-29T19:44:59.041Z,32.40
2018-05-29T19:47:26.527Z,32.40
2018-05-29T19:49:54.005Z,32.40
2018-05-29T19:52:21.492Z,32.50
2018-05-29T19:54:48.969Z,32.50
2018-05-29T19:57:16.464Z,32.70
2018-05-29T19:59:43.941Z,32.60
2018-05-29T20:02:11.400Z,32.90
2018-05-29T20:04:39.651Z,33.30
2018-05-29T20:07:07.126Z,33.30
2018-05-29T20:09:34.677Z,33.40
2018-05-29T20:12:02.162Z,33.40
2018-05-29T20:14:29.640Z,33.60
2018-05-29T20:16:57.105Z,33.60
2018-05-29T20:19:24.614Z,33.70
2018-05-29T20:21:52.870Z,33.70
2018-05-29T20:24:20.397Z,33.80
2018-05-29T20:26:48.187Z,33.80
2018-05-29T20:29:15.729Z,33.90
2018-05-29T20:31:43.970Z,34.30
2018-05-29T20:34:11.585Z,34.30
2018-05-29T20:36:39.846Z,34.50
2018-05-29T20:39:07.350Z,34.40
2018-05-29T20:41:37.172Z,34.50
2018-05-29T20:44:05.484Z,34.50
2018-05-29T20:46:32.960Z,34.60
2018-05-29T20:49:01.639Z,34.40
2018-05-29T20:51:32.598Z,34.50
2018-05-29T20:54:00.857Z,34.50
2018-05-29T20:56:28.352Z,34.50
2018-05-29T20:58:56.620Z,34.70
2018-05-29T21:01:24.124Z,34.70
2018-05-29T21:03:52.394Z,34.80
2018-05-29T21:06:20.639Z,34.90
2018-05-29T21:08:48.143Z,34.90
2018-05-29T21:11:15.709Z,34.90
2018-05-29T21:13:44.374Z,35.10
2018-05-29T21:16:12.737Z,35.10
2018-05-29T21:18:40.289Z,35.10
2018-05-29T21:21:08.573Z,35.20
2018-05-29T21:23:36.117Z,35.20
2018-05-29T21:26:03.637Z,35.30
2018-05-29T21:28:31.913Z,35.40
2018-05-29T21:31:00.173Z,35.50
2018-05-29T21:33:27.693Z,35.50
2018-05-29T21:35:55.969Z,35.60
2018-05-29T21:38:23.567Z,35.60
2018-05-29T21:40:51.066Z,35.50
2018-05-29T21:43:18.581Z,35.50
2018-05-29T21:45:46.125Z,35.50
2018-05-29T21:48:13.628Z,35.60
2018-05-29T21:50:41.175Z,35.70
2018-05-29T21:53:08.676Z,35.60
2018-05-29T21:55:37.053Z,36.50
2018-05-29T21:58:05.429Z,35.90
2018-05-29T22:00:32.956Z,35.90
2018-05-29T22:03:00.477Z,35.90
2018-05-29T22:05:27.983Z,36.00
2018-05-29T22:07:56.219Z,36.20
2018-05-29T22:10:23.734Z,36.20
2018-05-29T22:12:52.031Z,36.30
2018-05-29T22:15:19.896Z,36.30
2018-05-29T22:17:48.198Z,36.30
2018-05-29T22:20:16.521Z,36.30
2018-05-29T22:22:44.740Z,36.40
2018-05-29T22:25:12.349Z,36.30
2018-05-29T22:27:39.841Z,36.40
2018-05-29T22:30:07.423Z,36.30
2018-05-29T22:32:35.025Z,36.40
2018-05-29T22:35:02.547Z,36.40
2018-05-29T22:37:30.040Z,36.50
2018-05-29T22:39:57.594Z,36.70
2018-05-29T22:42:25.110Z,36.80
2018-05-29T22:44:52.657Z,36.80
2018-05-29T22:47:20.153Z,36.90
2018-05-29T22:49:47.657Z,36.90
2018-05-29T22:52:15.172Z,37.00
2018-05-29T22:54:42.670Z,37.10
2018-05-29T22:59:44.323Z,37.30
2018-05-29T23:02:12.659Z,37.40
2018-05-29T23:04:40.209Z,37.50
2018-05-29T23:07:07.666Z,37.50
2018-05-29T23:09:35.152Z,37.60
2018-05-29T23:12:02.624Z,37.70
2018-05-29T23:14:30.135Z,37.80
2018-05-29T23:16:57.606Z,37.90
2018-05-29T23:19:25.103Z,38.00
2018-05-29T23:21:53.332Z,38.30
2018-05-29T23:24:20.839Z,38.30
2018-05-29T23:26:48.336Z,38.40
2018-05-29T23:29:16.643Z,38.60
2018-05-29T23:31:44.122Z,38.60
2018-05-29T23:34:11.590Z,38.60
2018-05-29T23:36:39.097Z,38.60
2018-05-29T23:39:06.554Z,38.70
2018-05-29T23:41:34.034Z,38.70
2018-05-29T23:44:01.568Z,38.70
2018-05-29T23:46:29.080Z,38.70
2018-05-29T23:48:56.548Z,38.90
2018-05-29T23:51:24.041Z,38.90
2018-05-29T23:53:51.500Z,39.00
2018-05-29T23:56:18.992Z,39.00
2018-05-29T23:58:46.465Z,39.10
